createdAt,value
2022-12-09T00:02:23.616Z,44.95
2022-12-09T00:04:50.510Z,50.20
2022-12-09T00:07:17.146Z,49.65
2022-12-09T00:09:43.730Z,44.15
2022-12-09T00:12:10.208Z,43.50
2022-12-09T00:14:36.889Z,46.03
2022-12-09T00:17:04.024Z,48.97
2022-12-09T00:19:30.641Z,52.10
2022-12-09T00:21:57.165Z,51.65
2022-12-09T00:24:23.969Z,48.28
2022-12-09T00:26:50.487Z,54.28
2022-12-09T00:29:17.063Z,46.15
2022-12-09T00:31:43.718Z,50.85
2022-12-09T00:34:12.511Z,48.47
2022-12-09T00:36:39.505Z,48.50
2022-12-09T00:39:06.032Z,45.75
2022-12-09T00:41:32.686Z,57.97
2022-12-09T00:43:59.422Z,48.78
2022-12-09T00:46:26.118Z,48.80
2022-12-09T00:48:52.778Z,51.30
2022-12-09T00:51:21.523Z,44.80
2022-12-09T00:53:48.700Z,53.47
2022-12-09T00:56:15.341Z,55.00
2022-12-09T00:58:41.897Z,50.55
2022-12-09T01:01:08.652Z,49.17
2022-12-09T01:03:36.223Z,53.13
2022-12-09T01:06:10.747Z,54.58
2022-12-09T01:08:39.294Z,51.50
2022-12-09T01:11:17.426Z,54.08
2022-12-09T01:13:45.725Z,51.65
2022-12-09T01:16:17.557Z,48.00
2022-12-09T01:18:45.070Z,48.72
2022-12-09T01:21:12.195Z,51.53
2022-12-09T01:23:40.202Z,51.55
2022-12-09T01:26:07.383Z,51.30
2022-12-09T01:28:35.511Z,48.80
2022-12-09T01:31:08.034Z,53.13
2022-12-09T01:33:34.779Z,43.30
2022-12-09T01:36:05.367Z,49.25
2022-12-09T01:38:32.101Z,50.30
2022-12-09T01:40:58.683Z,49.13
2022-12-09T01:43:25.612Z,52.10
2022-12-09T01:45:52.355Z,48.10
2022-12-09T01:48:21.449Z,48.90
2022-12-09T01:50:52.155Z,47.67
2022-12-09T01:53:20.180Z,50.03
2022-12-09T01:55:46.872Z,47.38
2022-12-09T01:58:14.483Z,49.63
2022-12-09T02:00:41.711Z,46.72
2022-12-09T02:03:09.399Z,48.63
2022-12-09T02:05:36.958Z,45.63
2022-12-09T02:08:07.784Z,46.58
2022-12-09T02:10:37.087Z,53.28
2022-12-09T02:13:21.325Z,50.55
2022-12-09T02:15:55.046Z,46.28
2022-12-09T02:18:38.651Z,52.22
2022-12-09T02:21:35.355Z,53.78
2022-12-09T02:24:12.984Z,55.85
2022-12-09T02:26:43.261Z,45.20
2022-12-09T02:29:16.555Z,51.67
2022-12-09T02:32:13.194Z,49.20
2022-12-09T02:34:54.176Z,45.85
2022-12-09T02:37:24.744Z,51.30
2022-12-09T02:40:00.207Z,51.35
2022-12-09T02:42:32.463Z,48.67
2022-12-09T02:45:02.637Z,48.88
2022-12-09T02:47:31.584Z,56.85
2022-12-09T02:50:02.830Z,53.63
2022-12-09T02:52:31.019Z,47.40
2022-12-09T02:55:00.414Z,55.90
2022-12-09T02:57:29.082Z,55.13
2022-12-09T02:59:56.142Z,52.50
2022-12-09T03:02:32.477Z,55.42
2022-12-09T03:05:08.945Z,54.95
2022-12-09T03:07:55.878Z,52.85
2022-12-09T03:10:28.961Z,48.97
2022-12-09T03:13:03.812Z,50.25
2022-12-09T03:15:32.293Z,50.83
2022-12-09T03:17:59.922Z,50.70
2022-12-09T03:20:29.029Z,60.17
2022-12-09T03:23:00.181Z,50.90
2022-12-09T03:25:42.268Z,51.22
2022-12-09T03:28:22.319Z,57.55
2022-12-09T03:30:48.882Z,49.50
2022-12-09T03:33:16.526Z,56.22
2022-12-09T03:35:46.847Z,55.97
2022-12-09T03:38:17.209Z,49.43
2022-12-09T03:40:44.630Z,51.25
2022-12-09T03:43:33.570Z,52.03
2022-12-09T03:46:00.750Z,48.63
2022-12-09T03:48:27.452Z,54.15
2022-12-09T03:50:58.920Z,50.55
2022-12-09T03:53:45.002Z,57.00
2022-12-09T03:56:18.897Z,55.00
2022-12-09T03:58:46.571Z,49.13
2022-12-09T04:01:13.932Z,50.35
2022-12-09T04:03:45.035Z,53.85
2022-12-09T04:08:38.274Z,47.17
2022-12-09T04:11:04.948Z,47.15
2022-12-09T04:13:31.550Z,49.78
2022-12-09T04:15:58.094Z,47.78
2022-12-09T04:18:24.723Z,34.28
2022-12-09T04:20:51.474Z,38.05
2022-12-09T04:23:18.185Z,40.97
2022-12-09T04:25:44.801Z,47.70
2022-12-09T04:28:11.396Z,49.42
2022-12-09T04:30:38.341Z,44.88
2022-12-09T04:33:05.163Z,41.53
2022-12-09T04:35:31.928Z,31.70
2022-12-09T04:37:58.464Z,44.03
2022-12-09T04:40:25.217Z,36.15
2022-12-09T04:42:52.050Z,36.53
2022-12-09T04:45:18.716Z,42.53
2022-12-09T04:47:45.695Z,37.22
2022-12-09T04:50:13.156Z,34.45
2022-12-09T04:52:40.126Z,41.33
2022-12-09T04:55:07.779Z,39.22
2022-12-09T04:57:34.718Z,33.08
2022-12-09T05:00:01.830Z,34.13
2022-12-09T05:02:29.577Z,34.97
2022-12-09T05:04:56.818Z,36.10
2022-12-09T05:07:25.368Z,30.63
2022-12-09T05:09:52.303Z,30.65
2022-12-09T05:12:18.957Z,30.90
2022-12-09T05:14:45.491Z,34.53
2022-12-09T05:17:12.387Z,44.33
2022-12-09T05:19:39.376Z,31.92
2022-12-09T05:22:05.933Z,36.40
2022-12-09T05:24:32.874Z,36.55
2022-12-09T05:26:59.889Z,35.38
2022-12-09T05:29:26.586Z,39.08
2022-12-09T05:31:53.339Z,37.47
2022-12-09T05:34:20.496Z,33.17
2022-12-09T05:36:48.098Z,38.30
2022-12-09T05:39:14.754Z,37.25
2022-12-09T05:41:43.427Z,34.00
2022-12-09T05:44:11.748Z,34.97
2022-12-09T05:46:38.443Z,37.22
2022-12-09T05:49:05.775Z,35.80
2022-12-09T05:51:32.950Z,35.30
2022-12-09T05:54:03.752Z,34.00
2022-12-09T05:56:30.989Z,30.02
2022-12-09T05:58:58.412Z,33.03
2022-12-09T06:01:25.937Z,31.75
2022-12-09T06:03:53.544Z,36.63
2022-12-09T06:06:22.978Z,36.33
2022-12-09T06:08:50.151Z,37.90
2022-12-09T06:11:19.791Z,38.00
2022-12-09T06:13:47.221Z,34.33
2022-12-09T06:16:14.718Z,29.90
2022-12-09T06:18:41.832Z,41.20
2022-12-09T06:21:10.145Z,34.15
2022-12-09T06:23:38.043Z,34.85
2022-12-09T06:26:05.655Z,40.05
2022-12-09T06:28:33.206Z,37.35
2022-12-09T06:31:00.388Z,34.40
2022-12-09T06:33:53.663Z,44.15
2022-12-09T06:36:13.938Z,42.58
2022-12-09T06:38:40.604Z,41.85
2022-12-09T06:41:08.811Z,42.35
2022-12-09T06:43:35.749Z,36.20
2022-12-09T06:46:03.173Z,43.17
2022-12-09T06:48:30.335Z,42.88
2022-12-09T06:50:57.592Z,39.58
2022-12-09T06:53:24.196Z,41.78
2022-12-09T06:55:51.226Z,43.10
2022-12-09T06:58:18.118Z,47.25
2022-12-09T07:00:45.154Z,40.20
2022-12-09T07:03:13.032Z,42.05
2022-12-09T07:05:40.296Z,46.28
2022-12-09T07:08:07.749Z,48.83
2022-12-09T07:10:36.163Z,42.22
2022-12-09T07:13:03.035Z,48.22
2022-12-09T07:15:30.359Z,52.83
2022-12-09T07:17:57.301Z,48.92
2022-12-09T07:20:25.276Z,42.05
2022-12-09T07:22:52.287Z,45.53
2022-12-09T07:25:19.904Z,44.25
2022-12-09T07:27:47.106Z,40.25
2022-12-09T07:30:13.701Z,39.95
2022-12-09T07:32:40.823Z,39.10
2022-12-09T07:35:08.579Z,39.42
2022-12-09T07:37:35.539Z,36.75
2022-12-09T07:40:02.498Z,44.38
2022-12-09T07:42:29.531Z,38.55
2022-12-09T07:45:02.971Z,39.78
2022-12-09T07:47:29.688Z,41.90
2022-12-09T07:50:00.051Z,37.92
2022-12-09T07:52:29.537Z,46.72
2022-12-09T07:54:59.374Z,39.83
2022-12-09T07:57:26.163Z,39.25
2022-12-09T07:59:53.471Z,46.90
2022-12-09T08:02:20.236Z,39.97
2022-12-09T08:04:47.163Z,43.35
2022-12-09T08:07:14.707Z,42.70
2022-12-09T08:09:42.098Z,35.17
2022-12-09T08:12:11.714Z,42.17
2022-12-09T08:14:38.652Z,39.38
2022-12-09T08:17:06.509Z,40.35
2022-12-09T08:19:33.917Z,36.08
2022-12-09T08:22:01.141Z,39.70
2022-12-09T08:24:28.803Z,39.97
2022-12-09T08:26:55.942Z,37.65
2022-12-09T08:29:23.659Z,40.47
2022-12-09T08:31:51.501Z,38.50
2022-12-09T08:34:19.094Z,35.90
2022-12-09T08:36:46.504Z,33.60
2022-12-09T08:39:14.159Z,38.65
2022-12-09T08:41:41.289Z,36.13
2022-12-09T08:44:12.895Z,45.20
2022-12-09T08:46:41.764Z,45.40
2022-12-09T08:49:09.061Z,48.60
2022-12-09T08:51:36.784Z,44.03
2022-12-09T08:54:04.434Z,39.72
2022-12-09T08:56:32.107Z,39.15
2022-12-09T08:58:58.960Z,47.25
2022-12-09T09:01:32.684Z,39.53
2022-12-09T09:04:09.600Z,38.17
2022-12-09T09:06:41.498Z,38.22
2022-12-09T09:09:10.888Z,39.17
2022-12-09T09:11:38.416Z,38.40
2022-12-09T09:14:07.663Z,41.88
2022-12-09T09:16:39.829Z,36.83
2022-12-09T09:19:07.218Z,39.80
2022-12-09T09:21:35.721Z,31.58
2022-12-09T09:24:03.279Z,35.08
2022-12-09T09:26:30.261Z,34.08
2022-12-09T09:28:57.350Z,31.92
2022-12-09T09:31:25.079Z,32.40
2022-12-09T09:33:53.035Z,33.63
2022-12-09T09:36:23.635Z,36.17
2022-12-09T09:38:52.346Z,31.50
2022-12-09T09:41:25.526Z,26.55
2022-12-09T09:43:53.147Z,25.45
2022-12-09T09:46:35.880Z,28.90
2022-12-09T09:49:05.836Z,25.42
2022-12-09T09:51:34.522Z,32.10
2022-12-09T09:54:06.659Z,30.10
2022-12-09T09:56:41.145Z,30.73
2022-12-09T09:59:08.081Z,28.15
2022-12-09T10:01:37.020Z,28.08
2022-12-09T10:04:19.563Z,30.85
2022-12-09T10:07:07.453Z,35.95
2022-12-09T10:09:46.915Z,27.85
2022-12-09T10:12:47.186Z,26.20
2022-12-09T10:15:17.007Z,37.83
2022-12-09T10:17:51.194Z,33.80
2022-12-09T10:20:21.504Z,28.10
2022-12-09T10:22:52.325Z,32.63
2022-12-09T10:25:31.160Z,34.88
2022-12-09T10:28:12.888Z,32.90
2022-12-09T10:30:44.387Z,27.67
2022-12-09T10:33:17.461Z,30.42
2022-12-09T10:35:46.067Z,28.55
2022-12-09T10:38:16.246Z,30.70
2022-12-09T10:41:41.562Z,32.22
2022-12-09T10:44:19.793Z,31.25
2022-12-09T10:46:47.841Z,32.90
2022-12-09T10:49:21.665Z,30.88
2022-12-09T10:52:11.311Z,30.88
2022-12-09T10:55:12.573Z,29.20
2022-12-09T10:58:40.704Z,28.27
2022-12-09T11:01:42.424Z,30.10
2022-12-09T11:05:01.500Z,27.55
2022-12-09T11:08:04.414Z,33.80
2022-12-09T11:11:05.383Z,31.08
2022-12-09T11:14:06.270Z,31.15
2022-12-09T11:17:09.651Z,36.20
2022-12-09T11:20:19.973Z,30.25
2022-12-09T11:23:26.466Z,30.90
2022-12-09T11:26:38.445Z,29.05
2022-12-09T11:29:39.673Z,30.95
2022-12-09T11:32:40.876Z,29.63
2022-12-09T11:35:45.710Z,35.55
2022-12-09T11:38:52.232Z,26.50
2022-12-09T11:42:18.602Z,30.85
2022-12-09T11:45:41.364Z,31.00
2022-12-09T11:48:45.531Z,29.73
2022-12-09T11:51:50.330Z,30.30
2022-12-09T11:55:25.268Z,28.35
2022-12-09T11:58:29.268Z,32.20
2022-12-09T12:01:36.293Z,35.80
2022-12-09T12:04:48.294Z,34.40
2022-12-09T12:07:59.340Z,38.05
2022-12-09T12:11:25.797Z,34.83
2022-12-09T12:14:29.262Z,32.72
2022-12-09T12:17:35.334Z,38.72
2022-12-09T12:20:57.448Z,36.65
2022-12-09T12:24:23.376Z,35.70
2022-12-09T12:27:52.304Z,33.70
2022-12-09T12:31:20.829Z,37.25
2022-12-09T12:34:33.086Z,32.42
2022-12-09T12:37:58.495Z,39.85
2022-12-09T12:41:08.318Z,36.83
2022-12-09T12:44:36.397Z,30.35
2022-12-09T12:47:49.337Z,30.60
2022-12-09T12:51:27.267Z,26.17
2022-12-09T12:54:42.278Z,27.95
2022-12-09T12:58:06.405Z,30.30
2022-12-09T13:01:07.361Z,31.42
2022-12-09T13:04:26.269Z,34.30
2022-12-09T13:08:04.256Z,34.33
2022-12-09T13:11:07.285Z,38.90
2022-12-09T13:14:12.263Z,32.95
2022-12-09T13:17:15.275Z,37.45
2022-12-09T13:20:17.301Z,40.75
2022-12-09T13:23:31.261Z,37.40
2022-12-09T13:26:32.271Z,38.50
2022-12-09T13:30:09.548Z,36.75
2022-12-09T13:33:27.290Z,41.92
2022-12-09T13:36:52.272Z,39.70
2022-12-09T13:39:53.402Z,57.97
2022-12-09T13:43:02.323Z,43.97
2022-12-09T13:46:05.301Z,47.95
2022-12-09T13:49:07.268Z,42.85
2022-12-09T13:52:12.525Z,52.90
2022-12-09T13:55:06.269Z,52.33
2022-12-09T13:58:15.276Z,54.47
2022-12-09T14:01:25.270Z,55.58
2022-12-09T14:04:32.284Z,49.05
2022-12-09T14:07:42.344Z,48.85
2022-12-09T14:10:52.273Z,48.03
2022-12-09T14:13:53.538Z,45.10
2022-12-09T14:16:54.276Z,48.83
2022-12-09T14:20:05.548Z,49.33
2022-12-09T14:23:26.272Z,38.72
2022-12-09T14:26:50.295Z,45.53
2022-12-09T14:30:00.310Z,46.22
2022-12-09T14:33:03.279Z,51.92
2022-12-09T14:36:08.320Z,59.08
2022-12-09T14:39:25.129Z,48.40
2022-12-09T14:42:40.296Z,47.45
2022-12-09T14:46:18.271Z,37.95
2022-12-09T14:49:42.810Z,37.38
2022-12-09T14:52:49.277Z,31.45
2022-12-09T14:55:54.300Z,33.60
2022-12-09T14:59:01.281Z,40.30
2022-12-09T15:02:16.334Z,36.88
2022-12-09T15:05:17.359Z,34.67
2022-12-09T15:08:18.349Z,32.17
2022-12-09T15:11:26.348Z,32.50
2022-12-09T15:14:35.311Z,33.55
2022-12-09T15:17:45.304Z,29.58
2022-12-09T15:20:51.305Z,33.92
2022-12-09T15:23:54.387Z,33.60
2022-12-09T15:26:55.331Z,35.85
2022-12-09T15:29:56.294Z,29.70
2022-12-09T15:32:58.304Z,33.15
2022-12-09T15:36:23.332Z,36.70
2022-12-09T15:39:26.306Z,41.15
2022-12-09T15:42:33.319Z,42.28
2022-12-09T15:45:37.290Z,42.75
2022-12-09T15:48:45.326Z,43.75
2022-12-09T15:51:47.322Z,46.03
2022-12-09T15:54:52.379Z,48.95
2022-12-09T15:57:53.325Z,45.20
2022-12-09T16:00:57.332Z,48.72
2022-12-09T16:04:03.346Z,49.35
2022-12-09T16:07:04.356Z,48.33
2022-12-09T16:10:33.538Z,49.67
2022-12-09T16:13:34.333Z,49.75
2022-12-09T16:16:49.324Z,46.25
2022-12-09T16:19:50.358Z,62.33
2022-12-09T16:22:51.344Z,53.80
2022-12-09T16:26:04.903Z,59.47
2022-12-09T16:29:28.349Z,60.53
2022-12-09T16:32:32.327Z,68.45
2022-12-09T16:35:34.385Z,60.03
2022-12-09T16:38:35.632Z,54.70
2022-12-09T16:42:08.343Z,62.75
2022-12-09T16:45:44.358Z,64.97
2022-12-09T16:48:45.363Z,66.50
2022-12-09T16:51:46.389Z,64.43
2022-12-09T16:54:47.344Z,73.43
2022-12-09T16:57:49.348Z,70.22
2022-12-09T17:00:50.348Z,78.38
2022-12-09T17:03:55.338Z,71.28
2022-12-09T17:06:56.369Z,85.78
2022-12-09T17:09:57.324Z,75.55
2022-12-09T17:12:58.372Z,64.45
2022-12-09T17:15:59.472Z,79.90
2022-12-09T17:19:00.353Z,75.65
2022-12-09T17:22:01.328Z,78.47
2022-12-09T17:25:02.403Z,78.45
2022-12-09T17:28:03.380Z,77.45
2022-12-09T17:31:04.352Z,69.38
2022-12-09T17:34:05.545Z,66.88
2022-12-09T17:37:06.451Z,68.95
2022-12-09T17:40:07.452Z,76.80
2022-12-09T17:43:08.362Z,73.75
2022-12-09T17:46:12.383Z,73.15
2022-12-09T17:49:14.322Z,68.95
2022-12-09T17:52:16.356Z,58.97
2022-12-09T17:55:17.341Z,56.88
2022-12-09T17:58:18.638Z,57.83
2022-12-09T18:01:26.388Z,64.60
2022-12-09T18:04:28.364Z,58.88
2022-12-09T18:07:29.344Z,56.75
2022-12-09T18:10:23.398Z,55.05
2022-12-09T18:13:24.355Z,54.45
2022-12-09T18:16:25.396Z,56.83
2022-12-09T18:19:29.346Z,50.00
2022-12-09T18:22:30.382Z,56.20
2022-12-09T18:25:32.368Z,57.70
2022-12-09T18:28:34.401Z,50.10
2022-12-09T18:31:35.367Z,50.88
2022-12-09T18:34:42.334Z,55.70
2022-12-09T18:37:43.403Z,53.30
2022-12-09T18:41:05.403Z,61.45
2022-12-09T18:44:07.424Z,54.80
2022-12-09T18:47:08.405Z,56.72
2022-12-09T18:50:09.750Z,71.20
2022-12-09T18:53:11.364Z,70.85
2022-12-09T18:56:12.379Z,61.33
2022-12-09T18:59:13.393Z,66.60
2022-12-09T19:02:14.491Z,67.18
2022-12-09T19:05:15.378Z,60.22
2022-12-09T19:08:18.411Z,55.67
2022-12-09T19:11:19.396Z,61.42
2022-12-09T19:14:21.412Z,60.05
2022-12-09T19:17:25.419Z,56.30
2022-12-09T19:20:26.361Z,67.63
2022-12-09T19:23:27.376Z,71.32
2022-12-09T19:26:34.375Z,75.22
2022-12-09T19:29:36.383Z,74.75
2022-12-09T19:32:52.893Z,69.60
2022-12-09T19:35:54.597Z,68.82
2022-12-09T19:38:55.371Z,72.50
2022-12-09T19:41:57.402Z,68.13
2022-12-09T19:45:03.028Z,62.70
2022-12-09T19:48:05.432Z,65.85
2022-12-09T19:51:06.417Z,59.70
2022-12-09T19:54:08.395Z,66.28
2022-12-09T19:57:10.538Z,63.75
2022-12-09T20:00:13.447Z,70.32
2022-12-09T20:03:14.701Z,75.55
2022-12-09T20:06:15.403Z,72.03
2022-12-09T20:09:21.449Z,69.68
2022-12-09T20:12:22.451Z,67.38
2022-12-09T20:15:23.420Z,76.40
2022-12-09T20:18:24.435Z,79.75
2022-12-09T20:21:26.421Z,69.75
2022-12-09T20:24:27.452Z,69.53
2022-12-09T20:27:28.469Z,74.47
2022-12-09T20:30:30.386Z,74.85
2022-12-09T20:33:31.423Z,62.28
2022-12-09T20:36:34.388Z,77.03
2022-12-09T20:39:35.407Z,69.45
2022-12-09T20:42:36.416Z,70.97
2022-12-09T20:45:38.474Z,73.85
2022-12-09T20:48:39.456Z,63.10
2022-12-09T20:51:46.434Z,77.05
2022-12-09T20:54:47.414Z,75.93
2022-12-09T20:57:48.422Z,74.88
2022-12-09T21:00:49.427Z,73.20
2022-12-09T21:03:51.509Z,74.80
2022-12-09T21:06:53.407Z,69.10
2022-12-09T21:09:54.418Z,79.05
2022-12-09T21:12:55.414Z,68.65
2022-12-09T21:15:56.794Z,73.80
2022-12-09T21:18:57.423Z,76.88
2022-12-09T21:21:58.420Z,74.70
2022-12-09T21:25:00.422Z,76.45
2022-12-09T21:28:03.433Z,70.50
2022-12-09T21:31:05.419Z,76.80
2022-12-09T21:34:08.405Z,70.60
2022-12-09T21:37:09.401Z,77.40
2022-12-09T21:40:10.751Z,74.90
2022-12-09T21:43:11.411Z,81.25
2022-12-09T21:46:19.471Z,91.22
2022-12-09T21:49:20.405Z,77.70
2022-12-09T21:52:21.517Z,68.32
2022-12-09T21:55:22.423Z,73.75
2022-12-09T21:58:24.438Z,87.20
2022-12-09T22:01:41.509Z,77.05
2022-12-09T22:04:42.432Z,75.43
2022-12-09T22:07:43.569Z,88.57
2022-12-09T22:10:44.464Z,79.07
2022-12-09T22:13:45.421Z,83.72
2022-12-09T22:16:52.505Z,85.72
2022-12-09T22:20:22.607Z,97.13
2022-12-09T22:23:14.444Z,105.72
2022-12-09T22:26:19.431Z,92.30
2022-12-09T22:29:20.430Z,103.20
2022-12-09T22:32:21.445Z,109.35
2022-12-09T22:35:23.442Z,102.38
2022-12-09T22:38:24.412Z,98.80
2022-12-09T22:41:29.425Z,96.20
2022-12-09T22:44:31.712Z,108.32
2022-12-09T22:47:32.416Z,92.47
2022-12-09T22:50:33.477Z,100.97
2022-12-09T22:53:34.417Z,101.97
2022-12-09T22:56:37.447Z,104.45
2022-12-09T22:59:42.820Z,106.32
2022-12-09T23:02:43.587Z,102.50
2022-12-09T23:05:45.443Z,99.28
2022-12-09T23:08:46.443Z,105.10
2022-12-09T23:11:47.485Z,109.43
2022-12-09T23:14:50.864Z,105.00
2022-12-09T23:17:51.507Z,121.15
2022-12-09T23:20:52.434Z,110.78
2022-12-09T23:23:55.513Z,108.05
2022-12-09T23:26:56.459Z,118.32
2022-12-09T23:29:57.469Z,114.05
2022-12-09T23:32:58.444Z,108.78
2022-12-09T23:35:59.473Z,112.80
2022-12-09T23:42:01.543Z,109.78
2022-12-09T23:45:02.508Z,114.00
2022-12-09T23:51:04.444Z,102.97
2022-12-09T23:54:07.480Z,124.95
2022-12-09T23:57:08.472Z,108.60
